createdAt,value
2018-08-12T00:00:46.058Z,5.30
2018-08-12T00:03:17.332Z,4.87
2018-08-12T00:05:49.241Z,4.67
2018-08-12T00:08:18.299Z,4.70
2018-08-12T00:10:47.100Z,4.60
2018-08-12T00:13:16.345Z,4.83
2018-08-12T00:15:45.157Z,4.53
2018-08-12T00:18:14.029Z,4.07
2018-08-12T00:20:44.008Z,4.60
2018-08-12T00:23:13.369Z,4.50
2018-08-12T00:25:42.244Z,4.87
2018-08-12T00:28:11.088Z,4.50
2018-08-12T00:30:40.111Z,4.67
2018-08-12T00:33:09.192Z,4.50
2018-08-12T00:35:39.036Z,4.20
2018-08-12T00:38:08.522Z,4.77
2018-08-12T00:40:37.680Z,4.37
2018-08-12T00:43:07.013Z,4.10
2018-08-12T00:45:37.026Z,4.53
2018-08-12T00:48:06.103Z,4.60
2018-08-12T00:50:35.627Z,4.93
2018-08-12T00:53:04.496Z,4.20
2018-08-12T00:55:33.313Z,4.27
2018-08-12T00:58:02.284Z,4.50
2018-08-12T01:00:31.259Z,4.43
2018-08-12T01:03:00.496Z,4.27
2018-08-12T01:05:30.742Z,4.50
2018-08-12T01:08:00.408Z,4.23
2018-08-12T01:10:29.591Z,4.27
2018-08-12T01:12:58.672Z,4.20
2018-08-12T01:15:27.535Z,4.47
2018-08-12T01:17:56.694Z,3.83
2018-08-12T01:20:26.364Z,4.57
2018-08-12T01:22:56.063Z,4.40
2018-08-12T01:25:26.240Z,3.60
2018-08-12T01:27:55.399Z,4.27
2018-08-12T01:30:24.172Z,4.10
2018-08-12T01:32:54.036Z,3.50
2018-08-12T01:35:22.870Z,3.60
2018-08-12T01:37:52.033Z,3.70
2018-08-12T01:40:22.197Z,3.83
2018-08-12T01:42:51.297Z,3.70
2018-08-12T01:45:21.652Z,3.60
2018-08-12T01:47:50.650Z,3.50
2018-08-12T01:50:20.178Z,3.40
2018-08-12T01:52:49.343Z,3.80
2018-08-12T01:55:19.589Z,3.53
2018-08-12T01:57:52.405Z,3.67
2018-08-12T02:00:22.661Z,3.73
2018-08-12T02:02:51.662Z,3.50
2018-08-12T02:05:21.041Z,4.10
2018-08-12T02:07:49.895Z,3.60
2018-08-12T02:10:19.007Z,3.60
2018-08-12T02:12:49.356Z,3.80
2018-08-12T02:15:20.436Z,3.50
2018-08-12T02:17:49.640Z,3.90
2018-08-12T02:20:18.641Z,3.80
2018-08-12T02:22:47.624Z,3.47
2018-08-12T02:25:16.805Z,3.67
2018-08-12T02:27:45.667Z,3.37
2018-08-12T02:30:18.114Z,3.60
2018-08-12T02:32:49.053Z,3.53
2018-08-12T02:35:18.483Z,3.70
2018-08-12T02:37:47.331Z,3.50
2018-08-12T02:40:16.129Z,3.10
2018-08-12T02:42:45.416Z,3.63
2018-08-12T02:45:16.243Z,3.43
2018-08-12T02:47:46.314Z,3.17
2018-08-12T02:50:17.181Z,3.70
2018-08-12T02:52:46.864Z,3.50
2018-08-12T02:55:19.341Z,3.70
2018-08-12T02:57:48.105Z,4.00
2018-08-12T03:00:17.721Z,3.80
2018-08-12T03:02:47.496Z,3.80
2018-08-12T03:05:17.659Z,3.60
2018-08-12T03:07:46.769Z,3.10
2018-08-12T03:10:15.761Z,3.60
2018-08-12T03:12:44.564Z,3.37
2018-08-12T03:15:13.740Z,3.60
2018-08-12T03:17:45.816Z,3.70
2018-08-12T03:20:17.732Z,4.10
2018-08-12T03:22:47.006Z,3.80
2018-08-12T03:25:15.809Z,3.63
2018-08-12T03:27:44.845Z,3.67
2018-08-12T03:30:13.680Z,3.53
2018-08-12T03:32:43.241Z,3.70
2018-08-12T03:35:12.714Z,3.37
2018-08-12T03:37:42.175Z,4.10
2018-08-12T03:40:13.101Z,4.10
2018-08-12T03:42:42.672Z,3.83
2018-08-12T03:45:12.464Z,3.50
2018-08-12T03:47:41.263Z,3.73
2018-08-12T03:50:11.277Z,3.50
2018-08-12T03:52:41.944Z,3.60
2018-08-12T03:55:11.285Z,3.73
2018-08-12T03:57:40.502Z,4.10
2018-08-12T04:00:16.715Z,3.30
2018-08-12T04:02:48.295Z,3.47
2018-08-12T04:05:18.432Z,3.40
2018-08-12T04:07:47.296Z,3.70
2018-08-12T04:10:16.363Z,3.80
2018-08-12T04:12:47.009Z,3.77
2018-08-12T04:15:17.400Z,3.60
2018-08-12T04:17:46.716Z,3.57
2018-08-12T04:20:15.984Z,3.33
2018-08-12T04:22:44.797Z,3.30
2018-08-12T04:25:13.835Z,3.30
2018-08-12T04:27:42.735Z,3.50
2018-08-12T04:30:14.548Z,3.10
2018-08-12T04:32:43.748Z,3.37
2018-08-12T04:35:12.793Z,3.23
2018-08-12T04:37:41.607Z,3.83
2018-08-12T04:40:11.248Z,3.30
2018-08-12T04:42:40.411Z,3.33
2018-08-12T04:45:14.523Z,3.40
2018-08-12T04:47:44.020Z,3.60
2018-08-12T04:50:13.289Z,3.40
2018-08-12T04:52:42.226Z,3.80
2018-08-12T04:55:10.965Z,3.47
2018-08-12T04:57:40.016Z,3.47
2018-08-12T05:00:10.006Z,3.37
2018-08-12T05:02:40.277Z,3.90
2018-08-12T05:05:09.332Z,3.30
2018-08-12T05:07:38.637Z,3.70
2018-08-12T05:10:09.207Z,3.30
2018-08-12T05:12:38.339Z,4.00
2018-08-12T05:15:08.555Z,4.13
2018-08-12T05:17:37.349Z,4.00
2018-08-12T05:20:07.992Z,4.83
2018-08-12T05:22:37.407Z,4.90
2018-08-12T05:25:06.829Z,5.07
2018-08-12T05:27:35.922Z,5.10
2018-08-12T05:30:05.652Z,4.80
2018-08-12T05:32:40.786Z,5.07
2018-08-12T05:35:11.788Z,5.10
2018-08-12T05:37:43.207Z,5.00
2018-08-12T05:40:13.218Z,4.70
2018-08-12T05:42:42.670Z,4.77
2018-08-12T05:45:11.866Z,4.67
2018-08-12T05:47:40.976Z,4.57
2018-08-12T05:50:10.878Z,4.57
2018-08-12T05:52:39.945Z,4.67
2018-08-12T05:55:09.683Z,4.67
2018-08-12T05:57:40.651Z,4.60
2018-08-12T06:00:14.361Z,4.83
2018-08-12T06:02:44.846Z,4.50
2018-08-12T06:05:13.836Z,4.30
2018-08-12T06:07:42.814Z,4.77
2018-08-12T06:10:13.513Z,4.57
2018-08-12T06:12:42.933Z,5.07
2018-08-12T06:15:16.012Z,4.33
2018-08-12T06:17:45.244Z,5.00
2018-08-12T06:20:21.941Z,4.77
2018-08-12T06:22:53.153Z,5.37
2018-08-12T06:25:22.275Z,4.90
2018-08-12T06:27:51.224Z,4.20
2018-08-12T06:30:20.507Z,4.27
2018-08-12T06:32:50.292Z,4.73
2018-08-12T06:35:19.206Z,4.30
2018-08-12T06:37:49.507Z,4.40
2018-08-12T06:40:20.670Z,4.77
2018-08-12T06:42:49.781Z,4.00
2018-08-12T06:45:18.949Z,4.50
2018-08-12T06:47:48.764Z,4.77
2018-08-12T06:50:17.584Z,4.40
2018-08-12T06:52:47.172Z,4.40
2018-08-12T06:55:16.816Z,4.40
2018-08-12T06:57:48.116Z,4.53
2018-08-12T07:00:20.403Z,4.33
2018-08-12T07:02:52.186Z,4.97
2018-08-12T07:05:21.538Z,4.83
2018-08-12T07:07:50.841Z,4.57
2018-08-12T07:10:19.915Z,4.50
2018-08-12T07:12:49.161Z,3.87
2018-08-12T07:15:19.565Z,4.70
2018-08-12T07:17:52.210Z,4.40
2018-08-12T07:20:24.560Z,4.60
2018-08-12T07:22:53.437Z,4.40
2018-08-12T07:25:22.764Z,4.50
2018-08-12T07:27:52.224Z,4.10
2018-08-12T07:30:21.310Z,4.30
2018-08-12T07:32:50.576Z,4.53
2018-08-12T07:35:24.819Z,4.53
2018-08-12T07:37:57.468Z,4.43
2018-08-12T07:40:28.886Z,4.37
2018-08-12T07:43:01.125Z,4.50
2018-08-12T07:45:32.117Z,4.60
2018-08-12T07:48:01.462Z,5.00
2018-08-12T07:50:30.801Z,4.63
2018-08-12T07:52:59.731Z,4.93
2018-08-12T07:55:28.515Z,4.73
2018-08-12T07:57:59.679Z,4.60
2018-08-12T08:00:28.487Z,5.07
2018-08-12T08:02:57.546Z,5.00
2018-08-12T08:05:26.618Z,4.70
2018-08-12T08:07:55.448Z,4.83
2018-08-12T08:10:24.347Z,4.40
2018-08-12T08:12:53.157Z,4.60
2018-08-12T08:15:24.261Z,4.43
2018-08-12T08:17:53.755Z,4.90
2018-08-12T08:20:22.481Z,4.37
2018-08-12T08:22:51.568Z,4.90
2018-08-12T08:25:20.923Z,4.10
2018-08-12T08:27:49.720Z,4.37
2018-08-12T08:30:18.812Z,4.57
2018-08-12T08:32:48.601Z,4.50
2018-08-12T08:35:17.903Z,4.60
2018-08-12T08:37:46.823Z,4.77
2018-08-12T08:40:16.851Z,4.60
2018-08-12T08:42:46.117Z,4.37
2018-08-12T08:45:18.935Z,4.53
2018-08-12T08:47:49.006Z,4.40
2018-08-12T08:50:20.525Z,4.20
2018-08-12T08:52:49.787Z,4.57
2018-08-12T08:55:18.832Z,4.20
2018-08-12T08:57:48.182Z,4.13
2018-08-12T09:00:18.945Z,4.20
2018-08-12T09:02:49.535Z,4.03
2018-08-12T09:05:19.641Z,4.00
2018-08-12T09:07:52.593Z,4.17
2018-08-12T09:10:22.520Z,4.20
2018-08-12T09:12:51.730Z,3.90
2018-08-12T09:15:21.913Z,3.60
2018-08-12T09:17:51.140Z,3.47
2018-08-12T09:20:21.271Z,3.80
2018-08-12T09:22:50.347Z,3.77
2018-08-12T09:25:22.856Z,3.50
2018-08-12T09:27:55.498Z,3.50
2018-08-12T09:30:25.088Z,3.50
2018-08-12T09:32:54.112Z,3.50
2018-08-12T09:35:23.201Z,3.92
2018-08-12T09:37:52.426Z,3.70
2018-08-12T09:40:21.557Z,3.33
2018-08-12T09:42:50.808Z,3.70
2018-08-12T09:45:22.417Z,3.92
2018-08-12T09:47:51.648Z,3.90
2018-08-12T09:50:21.145Z,3.70
2018-08-12T09:52:51.595Z,3.55
2018-08-12T09:55:20.949Z,3.33
2018-08-12T09:57:50.077Z,3.70
2018-08-12T10:00:24.525Z,3.77
2018-08-12T10:02:55.652Z,3.10
2018-08-12T10:05:25.387Z,3.72
2018-08-12T10:07:54.557Z,3.67
2018-08-12T10:10:23.569Z,3.60
2018-08-12T10:12:52.577Z,3.20
2018-08-12T10:15:21.592Z,3.45
2018-08-12T10:18:00.514Z,3.87
2018-08-12T10:20:29.385Z,3.37
2018-08-12T10:22:58.668Z,3.20
2018-08-12T10:25:30.310Z,3.20
2018-08-12T10:28:01.476Z,3.30
2018-08-12T10:30:30.884Z,3.15
2018-08-12T10:32:59.852Z,3.12
2018-08-12T10:35:28.623Z,3.05
2018-08-12T10:37:57.484Z,2.90
2018-08-12T10:40:28.064Z,3.02
2018-08-12T10:42:58.889Z,3.15
2018-08-12T10:45:28.305Z,3.12
2018-08-12T10:47:57.423Z,3.10
2018-08-12T10:50:26.458Z,3.33
2018-08-12T10:52:55.337Z,3.20
2018-08-12T10:55:26.449Z,3.10
2018-08-12T10:57:59.123Z,3.35
2018-08-12T11:00:30.999Z,3.45
2018-08-12T11:03:00.313Z,3.50
2018-08-12T11:05:29.529Z,3.37
2018-08-12T11:07:59.539Z,3.35
2018-08-12T11:10:30.013Z,3.77
2018-08-12T11:13:02.553Z,3.52
2018-08-12T11:15:32.443Z,3.73
2018-08-12T11:18:01.654Z,3.33
2018-08-12T11:20:33.166Z,4.23
2018-08-12T11:23:01.903Z,3.93
2018-08-12T11:25:30.828Z,3.70
2018-08-12T11:27:59.926Z,3.57
2018-08-12T11:30:30.373Z,4.07
2018-08-12T11:33:03.393Z,3.67
2018-08-12T11:35:32.418Z,4.10
2018-08-12T11:38:02.024Z,4.33
2018-08-12T11:40:31.579Z,4.10
2018-08-12T11:43:00.584Z,3.97
2018-08-12T11:45:30.565Z,3.87
2018-08-12T11:47:59.607Z,3.80
2018-08-12T11:50:30.790Z,3.77
2018-08-12T11:53:03.597Z,3.60
2018-08-12T11:55:34.505Z,3.53
2018-08-12T11:58:03.749Z,3.20
2018-08-12T12:00:32.981Z,3.50
2018-08-12T12:03:02.247Z,3.17
2018-08-12T12:05:31.089Z,3.17
2018-08-12T12:08:00.665Z,3.70
2018-08-12T12:10:29.575Z,2.93
2018-08-12T12:12:58.397Z,3.30
2018-08-12T12:15:27.552Z,3.57
2018-08-12T12:17:56.393Z,3.30
2018-08-12T12:20:25.652Z,3.10
2018-08-12T12:22:54.583Z,3.20
2018-08-12T12:25:24.844Z,3.20
2018-08-12T12:27:55.861Z,3.33
2018-08-12T12:30:25.364Z,3.20
2018-08-12T12:32:54.817Z,3.00
2018-08-12T12:35:24.331Z,3.00
2018-08-12T12:37:53.511Z,2.50
2018-08-12T12:40:22.461Z,2.90
2018-08-12T12:42:53.547Z,2.77
2018-08-12T12:45:25.726Z,2.70
2018-08-12T12:48:02.389Z,3.00
2018-08-12T12:50:33.861Z,2.73
2018-08-12T12:53:02.938Z,3.00
2018-08-12T12:55:32.057Z,3.13
2018-08-12T12:58:00.898Z,2.70
2018-08-12T13:00:30.636Z,3.40
2018-08-12T13:02:59.836Z,3.40
2018-08-12T13:05:30.480Z,3.37
2018-08-12T13:08:00.297Z,3.60
2018-08-12T13:10:29.539Z,3.20
2018-08-12T13:12:58.775Z,3.73
2018-08-12T13:15:27.977Z,3.73
2018-08-12T13:17:58.176Z,3.30
2018-08-12T13:20:27.116Z,3.93
2018-08-12T13:22:57.873Z,3.10
2018-08-12T13:25:26.792Z,3.70
2018-08-12T13:27:56.115Z,3.30
2018-08-12T13:30:25.064Z,3.20
2018-08-12T13:32:53.981Z,3.77
2018-08-12T13:35:23.142Z,3.20
2018-08-12T13:37:53.677Z,3.60
2018-08-12T13:40:22.459Z,3.50
2018-08-12T13:42:51.715Z,3.60
2018-08-12T13:45:20.929Z,3.63
2018-08-12T13:47:49.735Z,3.13
2018-08-12T13:50:21.049Z,3.50
2018-08-12T13:52:53.986Z,3.50
2018-08-12T13:55:25.920Z,3.33
2018-08-12T13:57:55.407Z,3.47
2018-08-12T14:00:25.757Z,4.33
2018-08-12T14:02:55.118Z,3.47
2018-08-12T14:05:24.013Z,3.47
2018-08-12T14:07:53.079Z,3.67
2018-08-12T14:10:24.889Z,3.60
2018-08-12T14:12:56.654Z,3.20
2018-08-12T14:15:33.650Z,3.30
2018-08-12T14:18:10.445Z,3.20
2018-08-12T14:20:40.451Z,3.60
2018-08-12T14:23:12.265Z,3.63
2018-08-12T14:25:47.986Z,3.37
2018-08-12T14:28:17.986Z,3.13
2018-08-12T14:30:47.321Z,3.60
2018-08-12T14:33:16.430Z,3.43
2018-08-12T14:35:45.270Z,3.60
2018-08-12T14:38:14.412Z,3.50
2018-08-12T14:40:44.640Z,3.40
2018-08-12T14:43:14.270Z,3.30
2018-08-12T14:45:43.665Z,3.17
2018-08-12T14:48:12.556Z,3.03
2018-08-12T14:50:41.418Z,2.70
2018-08-12T14:53:13.510Z,2.70
2018-08-12T14:55:42.509Z,2.40
2018-08-12T14:58:15.644Z,2.60
2018-08-12T15:00:45.685Z,2.40
2018-08-12T15:03:15.001Z,2.80
2018-08-12T15:05:44.312Z,3.03
2018-08-12T15:08:13.242Z,2.37
2018-08-12T15:10:42.120Z,2.30
2018-08-12T15:13:15.262Z,2.50
2018-08-12T15:15:45.655Z,2.60
2018-08-12T15:18:16.527Z,2.50
2018-08-12T15:20:46.226Z,2.30
2018-08-12T15:23:15.334Z,3.20
2018-08-12T15:25:44.449Z,2.93
2018-08-12T15:28:13.435Z,2.80
2018-08-12T15:30:45.030Z,3.40
2018-08-12T15:33:14.106Z,2.87
2018-08-12T15:35:44.881Z,3.13
2018-08-12T15:38:13.636Z,2.87
2018-08-12T15:40:42.504Z,2.90
2018-08-12T15:43:11.416Z,2.93
2018-08-12T15:45:40.185Z,3.00
2018-08-12T15:48:09.581Z,2.70
2018-08-12T15:50:42.557Z,2.93
2018-08-12T15:53:14.289Z,2.93
2018-08-12T15:55:46.411Z,2.90
2018-08-12T15:58:15.657Z,2.70
2018-08-12T16:00:44.751Z,3.17
2018-08-12T16:03:13.861Z,3.20
2018-08-12T16:05:42.858Z,3.10
2018-08-12T16:08:13.360Z,3.03
2018-08-12T16:10:43.148Z,3.10
2018-08-12T16:13:12.521Z,3.20
2018-08-12T16:15:41.688Z,3.10
2018-08-12T16:18:10.496Z,3.37
2018-08-12T16:20:39.673Z,2.90
2018-08-12T16:23:08.635Z,3.33
2018-08-12T16:25:37.409Z,3.10
2018-08-12T16:28:06.786Z,2.93
2018-08-12T16:30:35.759Z,3.10
2018-08-12T16:33:04.912Z,3.00
2018-08-12T16:35:33.944Z,3.27
2018-08-12T16:38:02.904Z,3.27
2018-08-12T16:40:31.741Z,3.20
2018-08-12T16:43:00.821Z,3.10
2018-08-12T16:45:29.692Z,3.60
2018-08-12T16:47:58.804Z,3.30
2018-08-12T16:50:27.592Z,3.40
2018-08-12T16:52:59.426Z,3.27
2018-08-12T16:55:29.463Z,3.33
2018-08-12T16:57:59.566Z,3.30
2018-08-12T17:00:28.634Z,3.10
2018-08-12T17:02:57.917Z,3.50
2018-08-12T17:05:27.008Z,3.30
2018-08-12T17:07:56.106Z,3.40
2018-08-12T17:10:27.927Z,3.33
2018-08-12T17:13:00.111Z,3.47
2018-08-12T17:15:29.621Z,3.23
2018-08-12T17:17:58.978Z,3.70
2018-08-12T17:20:28.137Z,3.37
2018-08-12T17:22:57.231Z,3.27
2018-08-12T17:25:26.761Z,3.33
2018-08-12T17:27:56.823Z,3.43
2018-08-12T17:30:27.225Z,3.10
2018-08-12T17:32:56.332Z,3.73
2018-08-12T17:35:26.882Z,3.63
2018-08-12T17:37:55.734Z,3.23
2018-08-12T17:40:24.594Z,3.70
2018-08-12T17:42:53.379Z,3.80
2018-08-12T17:45:26.334Z,3.60
2018-08-12T17:48:01.137Z,3.43
2018-08-12T17:50:32.583Z,3.33
2018-08-12T17:53:01.903Z,3.50
2018-08-12T17:55:31.092Z,3.80
2018-08-12T17:58:01.155Z,3.77
2018-08-12T18:00:30.098Z,3.97
2018-08-12T18:03:01.203Z,3.77
2018-08-12T18:05:30.431Z,3.40
2018-08-12T18:08:01.006Z,3.50
2018-08-12T18:10:30.913Z,3.70
2018-08-12T18:13:01.194Z,3.70
2018-08-12T18:15:31.064Z,3.80
2018-08-12T18:18:01.965Z,4.00
2018-08-12T18:20:30.884Z,3.63
2018-08-12T18:23:02.123Z,3.80
2018-08-12T18:25:38.640Z,3.43
2018-08-12T18:28:09.318Z,3.60
2018-08-12T18:30:39.571Z,3.60
2018-08-12T18:33:09.467Z,3.27
2018-08-12T18:35:38.341Z,3.77
2018-08-12T18:38:08.291Z,3.60
2018-08-12T18:40:38.473Z,3.23
2018-08-12T18:43:07.916Z,3.20
2018-08-12T18:45:37.594Z,3.20
2018-08-12T18:48:11.773Z,3.40
2018-08-12T18:50:45.383Z,2.73
2018-08-12T18:53:16.545Z,2.60
2018-08-12T18:55:48.745Z,2.80
2018-08-12T18:58:18.597Z,2.03
2018-08-12T19:00:49.177Z,2.30
2018-08-12T19:03:18.226Z,4.10
2018-08-12T19:05:47.749Z,3.60
2018-08-12T19:08:19.413Z,2.40
2018-08-12T19:10:48.942Z,2.73
2018-08-12T19:13:19.276Z,2.10
2018-08-12T19:15:49.341Z,2.40
2018-08-12T19:18:18.617Z,2.07
2018-08-12T19:20:47.990Z,1.97
2018-08-12T19:23:16.737Z,1.90
2018-08-12T19:25:45.593Z,1.83
2018-08-12T19:28:16.669Z,1.67
2018-08-12T19:30:48.381Z,2.03
2018-08-12T19:33:20.893Z,2.00
2018-08-12T19:35:49.812Z,1.57
2018-08-12T19:38:18.880Z,1.67
2018-08-12T19:40:47.827Z,1.80
2018-08-12T19:43:17.013Z,2.07
2018-08-12T19:45:45.878Z,2.13
2018-08-12T19:48:16.354Z,2.10
2018-08-12T19:50:47.852Z,2.40
2018-08-12T19:53:18.735Z,2.00
2018-08-12T19:55:48.358Z,2.03
2018-08-12T19:58:17.556Z,1.80
2018-08-12T20:00:46.372Z,2.03
2018-08-12T20:03:15.317Z,2.10
2018-08-12T20:05:44.354Z,2.20
2018-08-12T20:08:13.784Z,2.10
2018-08-12T20:10:45.360Z,2.17
2018-08-12T20:13:16.511Z,1.90
2018-08-12T20:15:45.708Z,2.10
2018-08-12T20:18:14.868Z,2.80
2018-08-12T20:20:43.652Z,2.10
2018-08-12T20:23:12.428Z,2.20
2018-08-12T20:25:41.268Z,2.10
2018-08-12T20:28:14.018Z,2.10
2018-08-12T20:30:45.104Z,2.23
2018-08-12T20:33:13.972Z,2.27
2018-08-12T20:35:43.032Z,1.83
2018-08-12T20:38:12.252Z,2.10
2018-08-12T20:40:41.290Z,1.97
2018-08-12T20:43:10.197Z,1.90
2018-08-12T20:45:39.581Z,2.03
2018-08-12T20:48:10.756Z,2.50
2018-08-12T20:50:39.881Z,3.10
2018-08-12T20:53:09.173Z,2.50
2018-08-12T20:55:37.956Z,3.10
2018-08-12T20:58:06.783Z,3.03
2018-08-12T21:00:37.907Z,2.50
2018-08-12T21:03:08.037Z,2.83
2018-08-12T21:05:37.085Z,2.53
2018-08-12T21:08:05.924Z,2.87
2018-08-12T21:10:34.722Z,2.60
2018-08-12T21:13:03.561Z,2.40
2018-08-12T21:15:32.875Z,2.60
2018-08-12T21:18:01.964Z,2.67
2018-08-12T21:20:30.981Z,2.90
2018-08-12T21:23:00.016Z,2.80
2018-08-12T21:25:29.048Z,2.93
2018-08-12T21:27:58.002Z,2.57
2018-08-12T21:30:27.154Z,2.93
2018-08-12T21:32:56.456Z,2.77
2018-08-12T21:35:25.748Z,2.90
2018-08-12T21:37:54.860Z,3.03
2018-08-12T21:40:23.714Z,3.17
2018-08-12T21:42:52.927Z,2.97
2018-08-12T21:45:22.746Z,2.93
2018-08-12T21:47:52.241Z,3.50
2018-08-12T21:50:21.566Z,3.60
2018-08-12T21:52:50.976Z,3.20
2018-08-12T21:55:19.825Z,3.30
2018-08-12T21:57:49.448Z,3.10
2018-08-12T22:00:18.979Z,3.03
2018-08-12T22:02:48.297Z,3.37
2018-08-12T22:05:17.991Z,3.20
2018-08-12T22:07:47.071Z,3.10
2018-08-12T22:10:21.049Z,3.40
2018-08-12T22:12:51.244Z,3.67
2018-08-12T22:15:21.911Z,3.30
2018-08-12T22:17:51.260Z,3.83
2018-08-12T22:20:20.060Z,3.60
2018-08-12T22:22:49.385Z,3.33
2018-08-12T22:25:18.341Z,3.77
2018-08-12T22:27:48.453Z,3.97
2018-08-12T22:30:18.772Z,3.63
2018-08-12T22:32:47.732Z,3.80
2018-08-12T22:35:16.956Z,3.70
2018-08-12T22:37:46.111Z,3.80
2018-08-12T22:40:15.257Z,3.97
2018-08-12T22:42:44.675Z,4.10
2018-08-12T22:45:14.834Z,3.83
2018-08-12T22:47:43.824Z,4.43
2018-08-12T22:50:13.111Z,4.30
2018-08-12T22:52:45.899Z,4.43
2018-08-12T22:55:14.909Z,4.30
2018-08-12T22:57:43.691Z,4.13
2018-08-12T23:00:17.319Z,4.60
2018-08-12T23:02:47.746Z,4.33
2018-08-12T23:05:16.997Z,4.27
2018-08-12T23:07:45.974Z,4.80
2018-08-12T23:10:14.820Z,4.80
2018-08-12T23:12:43.995Z,4.70
2018-08-12T23:15:23.823Z,4.47
2018-08-12T23:17:53.039Z,4.77
2018-08-12T23:20:22.347Z,4.83
2018-08-12T23:22:52.364Z,4.73
2018-08-12T23:25:24.687Z,4.03
2018-08-12T23:27:55.687Z,4.43
2018-08-12T23:30:25.010Z,4.40
2018-08-12T23:32:56.115Z,4.77
2018-08-12T23:35:25.489Z,4.20
2018-08-12T23:37:54.502Z,4.57
2018-08-12T23:40:23.687Z,4.77
2018-08-12T23:42:52.487Z,4.30
2018-08-12T23:45:23.938Z,4.77
2018-08-12T23:47:53.178Z,4.70
2018-08-12T23:50:22.093Z,4.57
2018-08-12T23:52:51.262Z,5.00
2018-08-12T23:55:20.033Z,5.00
2018-08-12T23:57:49.371Z,4.70
